createdAt,value
2019-03-12T00:01:51.096Z,98878.80
2019-03-12T00:04:21.571Z,98879.09
2019-03-12T00:06:52.069Z,98880.98
2019-03-12T00:09:22.672Z,98873.92
2019-03-12T00:11:53.128Z,98869.55
2019-03-12T00:14:23.583Z,98875.23
2019-03-12T00:16:54.066Z,98864.10
2019-03-12T00:19:24.516Z,98856.19
2019-03-12T00:21:55.005Z,98862.15
2019-03-12T00:24:25.554Z,98865.70
2019-03-12T00:26:56.055Z,98862.42
2019-03-12T00:29:26.514Z,98879.79
2019-03-12T00:31:57.003Z,98877.09
2019-03-12T00:34:27.447Z,98873.80
2019-03-12T00:36:58.007Z,98885.22
2019-03-12T00:39:28.464Z,98882.24
2019-03-12T00:41:58.952Z,98893.66
2019-03-12T00:44:29.428Z,98890.36
2019-03-12T00:46:59.984Z,98892.85
2019-03-12T00:49:30.465Z,98888.16
2019-03-12T00:52:00.915Z,98902.29
2019-03-12T00:54:31.403Z,98891.14
2019-03-12T00:57:01.868Z,98893.59
2019-03-12T00:59:32.374Z,98893.59
2019-03-12T01:02:02.825Z,98897.37
2019-03-12T01:04:33.329Z,98890.53
2019-03-12T01:07:03.784Z,98893.55
2019-03-12T01:09:34.271Z,98897.88
2019-03-12T01:12:04.823Z,98899.78
2019-03-12T01:14:35.307Z,98905.16
2019-03-12T01:17:05.860Z,98921.95
2019-03-12T01:19:36.348Z,98932.19
2019-03-12T01:22:06.910Z,98927.80
2019-03-12T01:24:37.398Z,98928.59
2019-03-12T01:27:07.843Z,98920.64
2019-03-12T01:29:38.333Z,98917.63
2019-03-12T01:32:08.790Z,98920.38
2019-03-12T01:34:39.278Z,98921.45
2019-03-12T01:37:09.730Z,98919.23
2019-03-12T01:39:40.171Z,98925.40
2019-03-12T01:42:10.672Z,98936.30
2019-03-12T01:44:41.158Z,98939.52
2019-03-12T01:47:11.616Z,98948.22
2019-03-12T01:49:42.100Z,98943.34
2019-03-12T01:52:12.554Z,98956.95
2019-03-12T01:54:43.012Z,98952.02
2019-03-12T01:57:13.504Z,98956.03
2019-03-12T01:59:43.953Z,98961.55
2019-03-12T02:02:14.548Z,98961.62
2019-03-12T02:04:45.007Z,98958.67
2019-03-12T02:07:15.500Z,98963.48
2019-03-12T02:09:46.004Z,98963.66
2019-03-12T02:12:16.458Z,98972.73
2019-03-12T02:14:46.945Z,98975.34
2019-03-12T02:17:17.386Z,98965.97
2019-03-12T02:19:47.867Z,98976.01
2019-03-12T02:22:18.353Z,98962.34
2019-03-12T02:24:53.063Z,98880.39
2019-03-12T02:27:21.128Z,98973.41
2019-03-12T02:29:51.680Z,98963.83
2019-03-12T02:32:22.137Z,98965.22
2019-03-12T02:34:52.627Z,98963.18
2019-03-12T02:37:23.103Z,98974.72
2019-03-12T02:39:53.552Z,98971.97
2019-03-12T02:42:24.037Z,98971.95
2019-03-12T02:44:54.483Z,98968.20
2019-03-12T02:47:24.978Z,98977.69
2019-03-12T02:49:55.456Z,98973.05
2019-03-12T02:52:25.908Z,98971.06
2019-03-12T02:54:56.400Z,98978.61
2019-03-12T02:57:26.893Z,98979.03
2019-03-12T02:59:57.351Z,98975.11
2019-03-12T03:02:27.809Z,98984.64
2019-03-12T03:04:58.407Z,98897.25
2019-03-12T03:07:46.192Z,98982.29
2019-03-12T03:10:16.649Z,98997.13
2019-03-12T03:12:47.249Z,99004.18
2019-03-12T03:15:19.690Z,99002.02
2019-03-12T03:17:50.283Z,99010.34
2019-03-12T03:20:20.776Z,99005.14
2019-03-12T03:22:51.342Z,99007.84
2019-03-12T03:25:22.035Z,99016.30
2019-03-12T03:27:52.517Z,99018.59
2019-03-12T03:30:24.256Z,99010.80
2019-03-12T03:32:54.844Z,99013.84
2019-03-12T03:35:25.293Z,99008.42
2019-03-12T03:37:55.790Z,99021.20
2019-03-12T03:40:26.247Z,99001.69
2019-03-12T03:42:56.753Z,99015.99
2019-03-12T03:45:27.309Z,99025.71
2019-03-12T03:47:57.905Z,99032.94
2019-03-12T03:50:28.392Z,99034.02
2019-03-12T03:52:58.842Z,99031.52
2019-03-12T03:55:29.295Z,99012.86
2019-03-12T03:57:59.997Z,99022.27
2019-03-12T04:00:30.525Z,99024.59
2019-03-12T04:03:00.985Z,99024.39
2019-03-12T04:05:31.424Z,99028.00
2019-03-12T04:08:01.906Z,99028.61
2019-03-12T04:10:32.436Z,99038.92
2019-03-12T04:13:02.937Z,99042.83
2019-03-12T04:15:33.404Z,99048.28
2019-03-12T04:18:03.889Z,99056.59
2019-03-12T04:20:34.455Z,99044.73
2019-03-12T04:23:04.919Z,99078.53
2019-03-12T04:25:35.383Z,99081.03
2019-03-12T04:28:05.854Z,99078.41
2019-03-12T04:30:36.304Z,99088.38
2019-03-12T04:33:08.234Z,99086.44
2019-03-12T04:35:38.672Z,99084.36
2019-03-12T04:38:09.168Z,99091.27
2019-03-12T04:40:39.610Z,99091.16
2019-03-12T04:43:10.105Z,99090.92
2019-03-12T04:45:40.539Z,99090.19
2019-03-12T04:48:11.031Z,99085.67
2019-03-12T04:50:41.521Z,99109.89
2019-03-12T04:53:11.995Z,99100.68
2019-03-12T04:55:42.471Z,99106.56
2019-03-12T04:58:12.961Z,99103.23
2019-03-12T05:00:43.467Z,99113.27
2019-03-12T05:03:13.902Z,99102.64
2019-03-12T05:05:44.351Z,99137.19
2019-03-12T05:08:14.879Z,99146.50
2019-03-12T05:10:45.409Z,99136.91
2019-03-12T05:13:15.908Z,99148.30
2019-03-12T05:15:46.361Z,99127.40
2019-03-12T05:18:16.936Z,99144.38
2019-03-12T05:20:47.523Z,99142.50
2019-03-12T05:23:17.974Z,99152.81
2019-03-12T05:25:48.429Z,99154.16
2019-03-12T05:28:18.919Z,99179.83
2019-03-12T05:30:49.491Z,99180.83
2019-03-12T05:33:20.010Z,99177.84
2019-03-12T05:35:50.442Z,99180.38
2019-03-12T05:38:20.885Z,99174.44
2019-03-12T05:40:51.366Z,99178.21
2019-03-12T05:43:21.932Z,99179.56
2019-03-12T05:45:52.392Z,99185.05
2019-03-12T05:48:22.884Z,99195.73
2019-03-12T05:50:53.379Z,99210.41
2019-03-12T05:53:28.970Z,99224.54
2019-03-12T05:55:59.463Z,99222.45
2019-03-12T05:58:29.902Z,99224.60
2019-03-12T06:01:00.395Z,99228.31
2019-03-12T06:03:30.893Z,99231.23
2019-03-12T06:06:01.347Z,99245.69
2019-03-12T06:08:31.835Z,99259.70
2019-03-12T06:11:02.348Z,99261.33
2019-03-12T06:13:32.809Z,99273.03
2019-03-12T06:16:03.378Z,99281.61
2019-03-12T06:18:33.828Z,99275.31
2019-03-12T06:21:04.294Z,99296.74
2019-03-12T06:23:34.894Z,99298.41
2019-03-12T06:26:05.459Z,99289.17
2019-03-12T06:28:36.168Z,99306.28
2019-03-12T06:31:23.578Z,99306.52
2019-03-12T06:34:15.299Z,99303.94
2019-03-12T06:37:16.906Z,99307.22
2019-03-12T06:40:03.789Z,99319.36
2019-03-12T06:42:59.269Z,99333.35
2019-03-12T06:45:38.538Z,99326.52
2019-03-12T06:48:27.871Z,99333.20
2019-03-12T06:51:14.565Z,99349.40
2019-03-12T06:54:06.428Z,99344.41
2019-03-12T06:57:04.980Z,99365.48
2019-03-12T07:00:01.482Z,99355.38
2019-03-12T07:02:48.920Z,99377.69
2019-03-12T07:05:31.470Z,99378.44
2019-03-12T07:08:14.125Z,99386.91
2019-03-12T07:11:08.906Z,99387.34
2019-03-12T07:14:04.082Z,99399.94
2019-03-12T07:16:56.475Z,99402.42
2019-03-12T07:20:03.867Z,99400.00
2019-03-12T07:22:56.101Z,99407.97
2019-03-12T07:25:51.427Z,99405.78
2019-03-12T07:28:35.770Z,99409.13
2019-03-12T07:31:31.082Z,99402.80
2019-03-12T07:34:37.042Z,99410.95
2019-03-12T07:37:44.442Z,99401.94
2019-03-12T07:40:32.430Z,99410.95
2019-03-12T07:43:11.886Z,99403.52
2019-03-12T07:45:48.420Z,99409.06
2019-03-12T07:48:32.538Z,99412.95
2019-03-12T07:51:30.686Z,99401.78
2019-03-12T07:54:17.522Z,99408.91
2019-03-12T07:57:06.766Z,99429.06
2019-03-12T07:59:58.997Z,99411.08
2019-03-12T08:02:40.905Z,99418.42
2019-03-12T08:05:48.446Z,99407.45
2019-03-12T08:08:35.838Z,99414.86
2019-03-12T08:11:37.041Z,99413.11
2019-03-12T08:14:15.534Z,99412.20
2019-03-12T08:17:03.461Z,99412.95
2019-03-12T08:19:51.565Z,99410.16
2019-03-12T08:22:41.015Z,99401.06
2019-03-12T08:25:26.176Z,99405.00
2019-03-12T08:28:21.362Z,99405.70
2019-03-12T08:31:06.403Z,99405.59
2019-03-12T08:33:58.964Z,99402.58
2019-03-12T08:37:00.515Z,99422.73
2019-03-12T08:39:48.290Z,99413.70
2019-03-12T08:42:54.410Z,99423.64
2019-03-12T08:45:54.125Z,99421.98
2019-03-12T08:48:49.604Z,99427.02
2019-03-12T08:51:41.201Z,99427.86
2019-03-12T08:54:30.524Z,99424.83
2019-03-12T08:57:31.751Z,99413.00
2019-03-12T09:00:23.898Z,99411.48
2019-03-12T09:03:12.237Z,99418.48
2019-03-12T09:05:50.992Z,99413.21
2019-03-12T09:08:31.752Z,99410.73
2019-03-12T09:11:10.755Z,99417.36
2019-03-12T09:14:00.051Z,99421.25
2019-03-12T09:16:52.188Z,99427.48
2019-03-12T09:19:41.480Z,99407.14
2019-03-12T09:22:25.290Z,99416.20
2019-03-12T09:25:27.229Z,99413.25
2019-03-12T09:28:35.742Z,99422.27
2019-03-12T09:31:37.161Z,99415.69
2019-03-12T09:34:29.288Z,99416.16
2019-03-12T09:37:29.050Z,99421.08
2019-03-12T09:40:13.548Z,99415.97
2019-03-12T09:43:08.844Z,99434.84
2019-03-12T09:46:04.119Z,99429.93
2019-03-12T09:48:47.954Z,99442.81
2019-03-12T09:51:46.494Z,99440.73
2019-03-12T09:54:34.254Z,99437.55
2019-03-12T09:57:17.177Z,99444.52
2019-03-12T10:00:15.427Z,99445.00
2019-03-12T10:03:14.128Z,99451.91
2019-03-12T10:06:02.132Z,99460.74
2019-03-12T10:09:06.632Z,99458.84
2019-03-12T10:12:01.893Z,99462.66
2019-03-12T10:15:09.668Z,99457.00
2019-03-12T10:17:57.217Z,99459.22
2019-03-12T10:20:52.265Z,99473.91
2019-03-12T10:23:40.998Z,99463.47
2019-03-12T10:26:39.268Z,99475.37
2019-03-12T10:29:16.279Z,99472.50
2019-03-12T10:31:58.836Z,99477.91
2019-03-12T10:34:35.547Z,99464.55
2019-03-12T10:37:25.047Z,99481.34
2019-03-12T10:40:19.956Z,99482.66
2019-03-12T10:43:15.348Z,99495.41
2019-03-12T10:45:57.375Z,99488.08
2019-03-12T10:48:28.641Z,99492.86
2019-03-12T10:50:59.223Z,99492.91
2019-03-12T10:53:29.745Z,99495.58
2019-03-12T10:56:00.259Z,99485.70
2019-03-12T10:58:30.770Z,99485.27
2019-03-12T11:01:01.664Z,99482.59
2019-03-12T11:03:32.263Z,99481.78
2019-03-12T11:06:03.028Z,99485.84
2019-03-12T11:08:33.573Z,99489.72
2019-03-12T11:11:08.702Z,99485.55
2019-03-12T11:13:39.273Z,99490.45
2019-03-12T11:16:09.976Z,99493.41
2019-03-12T11:18:40.453Z,99487.62
2019-03-12T11:21:10.920Z,99484.53
2019-03-12T11:23:41.491Z,99497.73
2019-03-12T11:26:11.949Z,99493.08
2019-03-12T11:28:42.762Z,99493.09
2019-03-12T11:31:13.280Z,99505.58
2019-03-12T11:33:43.817Z,99506.47
2019-03-12T11:36:14.423Z,99502.51
2019-03-12T11:38:45.341Z,99505.33
2019-03-12T11:41:18.902Z,99506.67
2019-03-12T11:43:49.434Z,99511.22
2019-03-12T11:46:19.977Z,99512.08
2019-03-12T11:48:50.443Z,99507.73
2019-03-12T11:51:20.950Z,99521.91
2019-03-12T11:53:51.408Z,99517.95
2019-03-12T11:56:21.941Z,99530.23
2019-03-12T11:58:52.402Z,99522.63
2019-03-12T12:01:22.958Z,99527.64
2019-03-12T12:03:53.522Z,99530.93
2019-03-12T12:06:24.398Z,99544.62
2019-03-12T12:08:55.913Z,99543.80
2019-03-12T12:11:26.548Z,99555.62
2019-03-12T12:13:57.269Z,99558.25
2019-03-12T12:16:27.873Z,99557.62
2019-03-12T12:18:58.481Z,99560.14
2019-03-12T12:21:30.419Z,99554.27
2019-03-12T12:24:00.914Z,99559.91
2019-03-12T12:26:32.739Z,99555.37
2019-03-12T12:29:03.259Z,99548.05
2019-03-12T12:31:33.750Z,99551.63
2019-03-12T12:34:04.470Z,99543.33
2019-03-12T12:36:34.961Z,99544.88
2019-03-12T12:39:07.196Z,99542.33
2019-03-12T12:41:37.669Z,99536.09
2019-03-12T12:44:08.155Z,99539.25
2019-03-12T12:46:38.676Z,99541.55
2019-03-12T12:49:10.152Z,99550.77
2019-03-12T12:51:40.789Z,99566.78
2019-03-12T12:54:11.326Z,99572.84
2019-03-12T12:56:41.884Z,99584.98
2019-03-12T12:59:12.409Z,99589.65
2019-03-12T13:01:43.084Z,99600.93
2019-03-12T13:04:13.617Z,99604.16
2019-03-12T13:06:44.099Z,99613.35
2019-03-12T13:09:14.900Z,99617.44
2019-03-12T13:11:45.376Z,99616.08
2019-03-12T13:14:16.043Z,99623.53
2019-03-12T13:16:47.498Z,99623.42
2019-03-12T13:19:18.041Z,99616.00
2019-03-12T13:21:48.511Z,99619.78
2019-03-12T13:24:19.054Z,99622.14
2019-03-12T13:26:49.587Z,99617.20
2019-03-12T13:29:20.129Z,99619.44
2019-03-12T13:31:50.742Z,99617.86
2019-03-12T13:34:21.189Z,99626.85
2019-03-12T13:36:51.774Z,99624.69
2019-03-12T13:39:22.314Z,99638.05
2019-03-12T13:41:52.881Z,99632.20
2019-03-12T13:44:23.437Z,99630.81
2019-03-12T13:46:53.998Z,99631.20
2019-03-12T13:49:24.502Z,99627.89
2019-03-12T13:51:54.964Z,99634.34
2019-03-12T13:54:25.584Z,99633.45
2019-03-12T13:56:56.173Z,99635.72
2019-03-12T13:59:27.740Z,99629.42
2019-03-12T14:01:58.289Z,99621.70
2019-03-12T14:04:28.850Z,99621.25
2019-03-12T14:06:59.435Z,99528.77
2019-03-12T14:09:30.173Z,99630.70
2019-03-12T14:12:00.635Z,99634.38
2019-03-12T14:14:31.245Z,99637.06
2019-03-12T14:17:01.706Z,99640.23
2019-03-12T14:19:32.319Z,99648.19
2019-03-12T14:22:05.578Z,99654.27
2019-03-12T14:24:36.647Z,99657.66
2019-03-12T14:27:07.128Z,99661.48
2019-03-12T14:29:37.823Z,99662.00
2019-03-12T14:32:08.419Z,99669.48
2019-03-12T14:34:38.914Z,99670.84
2019-03-12T14:37:09.431Z,99674.48
2019-03-12T14:39:40.002Z,99570.23
2019-03-12T14:42:10.512Z,99659.23
2019-03-12T14:44:41.006Z,99656.97
2019-03-12T14:47:11.490Z,99649.02
2019-03-12T14:49:42.084Z,99645.62
2019-03-12T14:52:22.797Z,99660.33
2019-03-12T14:54:53.319Z,99664.17
2019-03-12T14:57:24.231Z,99667.41
2019-03-12T14:59:54.751Z,99675.14
2019-03-12T15:02:25.383Z,99677.69
2019-03-12T15:04:55.861Z,99683.70
2019-03-12T15:07:26.589Z,99682.13
2019-03-12T15:09:57.058Z,99687.76
2019-03-12T15:12:27.510Z,99683.27
2019-03-12T15:14:58.014Z,99686.59
2019-03-12T15:17:28.466Z,99683.73
2019-03-12T15:19:58.975Z,99681.75
2019-03-12T15:22:29.522Z,99688.89
2019-03-12T15:25:00.056Z,99693.92
2019-03-12T15:27:30.561Z,99706.03
2019-03-12T15:30:01.063Z,99708.80
2019-03-12T15:32:31.562Z,99718.52
2019-03-12T15:35:02.413Z,99713.27
2019-03-12T15:37:32.910Z,99707.16
2019-03-12T15:40:03.526Z,99706.63
2019-03-12T15:42:33.979Z,99705.05
2019-03-12T15:45:04.678Z,99699.80
2019-03-12T15:47:38.786Z,99702.22
2019-03-12T15:50:09.869Z,99705.52
2019-03-12T15:52:39.919Z,99702.53
2019-03-12T15:55:11.006Z,99706.75
2019-03-12T15:57:41.545Z,99705.23
2019-03-12T16:00:12.252Z,99709.89
2019-03-12T16:02:42.736Z,99712.44
2019-03-12T16:05:13.423Z,99721.69
2019-03-12T16:07:43.913Z,99728.06
2019-03-12T16:10:14.478Z,99735.04
2019-03-12T16:12:44.976Z,99738.58
2019-03-12T16:15:15.874Z,99738.06
2019-03-12T16:17:46.318Z,99737.55
2019-03-12T16:20:17.029Z,99752.48
2019-03-12T16:22:47.482Z,99754.95
2019-03-12T16:25:18.569Z,99752.62
2019-03-12T16:27:49.159Z,99759.17
2019-03-12T16:30:19.879Z,99766.14
2019-03-12T16:32:50.473Z,99770.13
2019-03-12T16:35:20.988Z,99763.73
2019-03-12T16:37:51.443Z,99671.09
2019-03-12T16:40:21.970Z,99763.98
2019-03-12T16:42:52.422Z,99769.91
2019-03-12T16:45:23.022Z,99780.17
2019-03-12T16:47:53.631Z,99787.78
2019-03-12T16:50:24.083Z,99790.09
2019-03-12T16:52:54.572Z,99788.00
2019-03-12T16:55:25.095Z,99795.57
2019-03-12T16:57:55.563Z,99797.45
2019-03-12T17:00:26.181Z,99801.19
2019-03-12T17:02:56.763Z,99803.39
2019-03-12T17:05:27.235Z,99818.55
2019-03-12T17:07:57.720Z,99818.41
2019-03-12T17:10:28.211Z,99832.42
2019-03-12T17:12:58.671Z,99833.63
2019-03-12T17:15:29.202Z,99835.72
2019-03-12T17:17:59.658Z,99841.34
2019-03-12T17:20:30.121Z,99850.57
2019-03-12T17:23:00.560Z,99857.34
2019-03-12T17:25:31.041Z,99854.64
2019-03-12T17:28:01.529Z,99856.91
2019-03-12T17:30:32.065Z,99856.91
2019-03-12T17:33:02.562Z,99858.09
2019-03-12T17:35:33.217Z,99865.63
2019-03-12T17:38:03.674Z,99866.13
2019-03-12T17:40:34.253Z,99873.63
2019-03-12T17:43:04.872Z,99882.73
2019-03-12T17:45:35.875Z,99875.16
2019-03-12T17:48:06.680Z,99877.41
2019-03-12T17:50:37.176Z,99877.86
2019-03-12T17:53:07.744Z,99883.34
2019-03-12T17:55:38.230Z,99884.38
2019-03-12T17:58:08.716Z,99889.95
2019-03-12T18:00:41.915Z,99891.14
2019-03-12T18:03:12.458Z,99894.30
2019-03-12T18:05:42.950Z,99893.84
2019-03-12T18:08:13.398Z,99898.64
2019-03-12T18:10:43.852Z,99911.58
2019-03-12T18:13:14.340Z,99914.91
2019-03-12T18:15:44.781Z,99925.83
2019-03-12T18:18:15.261Z,99923.27
2019-03-12T18:20:45.711Z,99928.32
2019-03-12T18:23:16.242Z,99920.95
2019-03-12T18:25:46.730Z,99931.14
2019-03-12T18:28:17.185Z,99937.98
2019-03-12T18:30:47.702Z,99939.91
2019-03-12T18:33:18.190Z,99945.07
2019-03-12T18:35:48.635Z,99933.86
2019-03-12T18:38:19.134Z,99953.30
2019-03-12T18:40:49.576Z,99951.61
2019-03-12T18:43:20.364Z,99959.38
2019-03-12T18:45:50.823Z,99959.95
2019-03-12T18:48:21.319Z,99965.64
2019-03-12T18:50:51.782Z,99966.02
2019-03-12T18:53:22.261Z,99965.89
2019-03-12T18:55:58.074Z,99970.56
2019-03-12T18:58:28.551Z,99969.21
2019-03-12T19:01:01.104Z,99971.53
2019-03-12T19:03:31.582Z,99970.48
2019-03-12T19:06:02.152Z,99976.49
2019-03-12T19:08:32.695Z,99987.09
2019-03-12T19:11:03.187Z,99990.94
2019-03-12T19:13:33.696Z,99994.37
2019-03-12T19:16:04.377Z,100004.56
2019-03-12T19:18:34.931Z,100003.83
2019-03-12T19:21:05.520Z,100005.47
2019-03-12T19:23:35.983Z,100010.58
2019-03-12T19:26:07.602Z,100007.88
2019-03-12T19:28:38.087Z,100009.23
2019-03-12T19:31:33.421Z,100007.34
2019-03-12T19:34:08.286Z,100012.29
2019-03-12T19:36:38.750Z,100011.23
2019-03-12T19:39:11.568Z,100013.72
2019-03-12T19:41:42.067Z,100023.18
2019-03-12T19:44:12.514Z,100023.47
2019-03-12T19:46:43.115Z,100024.44
2019-03-12T19:49:13.813Z,100021.13
2019-03-12T19:51:44.276Z,100017.81
2019-03-12T19:54:14.881Z,100033.94
2019-03-12T19:56:45.382Z,100036.98
2019-03-12T19:59:15.935Z,100039.59
2019-03-12T20:01:47.536Z,100038.04
2019-03-12T20:04:17.983Z,100040.60
2019-03-12T20:06:48.423Z,99946.00
2019-03-12T20:09:32.730Z,100054.31
2019-03-12T20:12:35.466Z,100056.52
2019-03-12T20:15:48.955Z,100056.09
2019-03-12T20:19:15.544Z,100057.14
2019-03-12T20:22:21.178Z,100061.38
2019-03-12T20:25:56.623Z,100058.69
2019-03-12T20:29:10.500Z,100062.41
2019-03-12T20:32:35.033Z,100067.59
2019-03-12T20:36:01.322Z,100056.41
2019-03-12T20:39:06.907Z,100053.92
2019-03-12T20:42:12.564Z,100059.92
2019-03-12T20:45:26.388Z,100063.77
2019-03-12T20:48:36.146Z,100063.90
2019-03-12T20:51:47.306Z,100068.55
2019-03-12T20:55:07.036Z,100064.28
2019-03-12T20:58:23.670Z,100064.19
2019-03-12T21:01:31.658Z,99957.94
2019-03-12T21:05:04.483Z,100062.02
2019-03-12T21:08:23.353Z,100059.86
2019-03-12T21:11:30.459Z,100061.21
2019-03-12T21:14:44.794Z,100065.95
2019-03-12T21:17:50.472Z,100059.11
2019-03-12T21:20:55.965Z,100050.20
2019-03-12T21:23:55.554Z,100057.14
2019-03-12T21:26:56.114Z,100052.05
2019-03-12T21:29:44.048Z,100053.63
2019-03-12T21:32:15.453Z,100053.30
2019-03-12T21:34:46.071Z,100051.55
2019-03-12T21:37:16.840Z,100045.39
2019-03-12T21:39:55.043Z,100051.61
2019-03-12T21:42:19.678Z,100052.02
2019-03-12T21:44:50.136Z,100052.65
2019-03-12T21:47:20.705Z,100048.17
2019-03-12T21:49:51.188Z,100051.05
2019-03-12T21:52:21.652Z,100046.63
2019-03-12T21:54:52.173Z,100049.72
2019-03-12T21:57:22.684Z,100051.22
2019-03-12T21:59:54.428Z,100038.83
2019-03-12T22:02:24.915Z,100043.66
2019-03-12T22:04:55.433Z,100039.64
2019-03-12T22:07:25.914Z,100038.47
2019-03-12T22:09:56.402Z,100045.91
2019-03-12T22:12:26.909Z,100049.92
2019-03-12T22:14:57.392Z,100042.75
2019-03-12T22:17:27.961Z,100047.95
2019-03-12T22:19:58.423Z,100046.08
2019-03-12T22:22:56.922Z,100043.49
2019-03-12T22:25:27.519Z,100045.97
2019-03-12T22:27:58.048Z,100043.83
2019-03-12T22:30:28.978Z,100030.53
2019-03-12T22:32:59.574Z,100035.48
2019-03-12T22:35:30.371Z,100029.72
2019-03-12T22:38:02.267Z,100030.87
2019-03-12T22:40:32.731Z,100024.56
2019-03-12T22:43:03.205Z,100032.77
2019-03-12T22:45:33.717Z,100031.61
2019-03-12T22:48:04.298Z,100034.61
2019-03-12T22:50:34.818Z,100040.93
2019-03-12T22:53:05.290Z,100036.09
2019-03-12T22:55:36.528Z,100036.67
2019-03-12T22:58:06.999Z,100033.67
2019-03-12T23:00:41.471Z,100042.60
2019-03-12T23:03:12.140Z,100038.90
2019-03-12T23:05:42.752Z,100039.31
2019-03-12T23:08:13.597Z,100034.42
2019-03-12T23:10:44.102Z,100040.33
2019-03-12T23:13:14.931Z,100042.60
2019-03-12T23:15:45.395Z,100044.20
2019-03-12T23:18:15.877Z,100041.42
2019-03-12T23:20:46.599Z,100041.01
2019-03-12T23:23:17.187Z,100041.86
2019-03-12T23:25:47.766Z,100036.27
2019-03-12T23:28:18.293Z,100041.36
2019-03-12T23:30:48.826Z,100036.45
2019-03-12T23:33:19.478Z,100035.84
2019-03-12T23:35:50.058Z,100044.16
2019-03-12T23:38:20.644Z,100048.97
2019-03-12T23:40:51.151Z,100046.75
2019-03-12T23:43:21.853Z,100045.53
2019-03-12T23:45:52.298Z,100051.55
2019-03-12T23:48:23.014Z,100042.32
2019-03-12T23:50:53.676Z,100042.17
2019-03-12T23:53:24.115Z,100053.87
2019-03-12T23:55:54.715Z,100049.21
2019-03-12T23:58:30.616Z,100041.67
